sensor_id;sensor_type;location;lat;lon;timestamp;P1;durP1;ratioP1;P2;durP2;ratioP2
55641;SDS011;41509;53.108;6.100;2023-07-20T00:01:25;1.25;;;1.02;;
55641;SDS011;41509;53.108;6.100;2023-07-20T00:03:51;1.73;;;1.10;;
55641;SDS011;41509;53.108;6.100;2023-07-20T00:06:23;2.10;;;1.15;;
55641;SDS011;41509;53.108;6.100;2023-07-20T00:08:50;1.40;;;0.90;;
55641;SDS011;41509;53.108;6.100;2023-07-20T00:11:26;1.77;;;1.10;;
55641;SDS011;41509;53.108;6.100;2023-07-20T00:13:52;1.55;;;1.02;;
55641;SDS011;41509;53.108;6.100;2023-07-20T00:16:18;1.58;;;0.82;;
55641;SDS011;41509;53.108;6.100;2023-07-20T00:18:44;1.50;;;0.80;;
55641;SDS011;41509;53.108;6.100;2023-07-20T00:21:09;3.67;;;0.93;;
55641;SDS011;41509;53.108;6.100;2023-07-20T00:23:35;3.63;;;0.90;;
55641;SDS011;41509;53.108;6.100;2023-07-20T00:26:01;3.45;;;1.17;;
55641;SDS011;41509;53.108;6.100;2023-07-20T00:28:27;1.88;;;1.10;;
55641;SDS011;41509;53.108;6.100;2023-07-20T00:30:53;2.05;;;0.95;;
55641;SDS011;41509;53.108;6.100;2023-07-20T00:33:19;1.50;;;0.90;;
55641;SDS011;41509;53.108;6.100;2023-07-20T00:35:44;2.08;;;1.10;;
55641;SDS011;41509;53.108;6.100;2023-07-20T00:38:10;1.63;;;0.93;;
55641;SDS011;41509;53.108;6.100;2023-07-20T00:40:40;1.17;;;0.70;;
55641;SDS011;41509;53.108;6.100;2023-07-20T00:43:06;1.80;;;0.80;;
55641;SDS011;41509;53.108;6.100;2023-07-20T00:45:33;1.45;;;0.73;;
55641;SDS011;41509;53.108;6.100;2023-07-20T00:48:01;2.17;;;1.13;;
55641;SDS011;41509;53.108;6.100;2023-07-20T00:50:29;1.80;;;0.88;;
55641;SDS011;41509;53.108;6.100;2023-07-20T00:52:56;4.25;;;0.98;;
55641;SDS011;41509;53.108;6.100;2023-07-20T00:55:22;2.25;;;1.20;;
55641;SDS011;41509;53.108;6.100;2023-07-20T00:57:49;1.90;;;1.20;;
55641;SDS011;41509;53.108;6.100;2023-07-20T01:00:16;2.85;;;1.05;;
55641;SDS011;41509;53.108;6.100;2023-07-20T01:02:42;1.60;;;1.00;;
55641;SDS011;41509;53.108;6.100;2023-07-20T01:05:08;2.75;;;1.10;;
55641;SDS011;41509;53.108;6.100;2023-07-20T01:07:35;3.03;;;1.30;;
55641;SDS011;41509;53.108;6.100;2023-07-20T01:13:06;2.03;;;1.20;;
55641;SDS011;41509;53.108;6.100;2023-07-20T01:15:34;2.10;;;1.40;;
55641;SDS011;41509;53.108;6.100;2023-07-20T01:18:00;2.58;;;1.13;;
55641;SDS011;41509;53.108;6.100;2023-07-20T01:20:30;4.53;;;1.42;;
55641;SDS011;41509;53.108;6.100;2023-07-20T01:28:26;2.40;;;1.33;;
55641;SDS011;41509;53.108;6.100;2023-07-20T01:31:34;2.17;;;1.38;;
55641;SDS011;41509;53.108;6.100;2023-07-20T01:34:00;2.17;;;1.50;;
55641;SDS011;41509;53.108;6.100;2023-07-20T01:36:29;3.08;;;1.75;;
55641;SDS011;41509;53.108;6.100;2023-07-20T01:38:58;4.95;;;1.48;;
55641;SDS011;41509;53.108;6.100;2023-07-20T01:41:24;3.40;;;1.50;;
55641;SDS011;41509;53.108;6.100;2023-07-20T01:43:50;4.32;;;1.48;;
55641;SDS011;41509;53.108;6.100;2023-07-20T01:46:16;2.35;;;1.40;;
55641;SDS011;41509;53.108;6.100;2023-07-20T01:48:41;2.78;;;1.63;;
55641;SDS011;41509;53.108;6.100;2023-07-20T01:51:07;1.83;;;1.35;;
55641;SDS011;41509;53.108;6.100;2023-07-20T01:53:33;2.45;;;1.20;;
55641;SDS011;41509;53.108;6.100;2023-07-20T01:55:59;3.28;;;1.55;;
55641;SDS011;41509;53.108;6.100;2023-07-20T01:58:25;2.13;;;1.58;;
55641;SDS011;41509;53.108;6.100;2023-07-20T02:00:51;2.72;;;1.60;;
55641;SDS011;41509;53.108;6.100;2023-07-20T02:03:16;2.15;;;1.50;;
55641;SDS011;41509;53.108;6.100;2023-07-20T02:05:42;3.20;;;1.67;;
55641;SDS011;41509;53.108;6.100;2023-07-20T02:10:34;2.50;;;1.40;;
55641;SDS011;41509;53.108;6.100;2023-07-20T02:13:00;2.63;;;1.60;;
55641;SDS011;41509;53.108;6.100;2023-07-20T02:15:26;3.95;;;1.85;;
55641;SDS011;41509;53.108;6.100;2023-07-20T02:17:52;2.30;;;1.55;;
55641;SDS011;41509;53.108;6.100;2023-07-20T02:20:18;2.50;;;1.67;;
55641;SDS011;41509;53.108;6.100;2023-07-20T02:22:45;2.13;;;1.40;;
55641;SDS011;41509;53.108;6.100;2023-07-20T02:25:10;4.75;;;1.30;;
55641;SDS011;41509;53.108;6.100;2023-07-20T02:27:37;2.75;;;1.63;;
55641;SDS011;41509;53.108;6.100;2023-07-20T02:30:03;3.42;;;1.50;;
55641;SDS011;41509;53.108;6.100;2023-07-20T02:34:56;1.83;;;1.13;;
55641;SDS011;41509;53.108;6.100;2023-07-20T02:37:22;4.78;;;1.30;;
55641;SDS011;41509;53.108;6.100;2023-07-20T02:39:48;2.20;;;1.40;;
55641;SDS011;41509;53.108;6.100;2023-07-20T02:42:14;3.05;;;1.80;;
55641;SDS011;41509;53.108;6.100;2023-07-20T02:44:40;2.20;;;1.30;;
55641;SDS011;41509;53.108;6.100;2023-07-20T02:47:06;2.10;;;1.23;;
55641;SDS011;41509;53.108;6.100;2023-07-20T02:49:32;3.33;;;1.33;;
55641;SDS011;41509;53.108;6.100;2023-07-20T02:51:57;1.75;;;1.27;;
55641;SDS011;41509;53.108;6.100;2023-07-20T02:54:23;1.88;;;1.38;;
55641;SDS011;41509;53.108;6.100;2023-07-20T02:56:49;3.25;;;1.30;;
55641;SDS011;41509;53.108;6.100;2023-07-20T02:59:14;3.92;;;1.48;;
55641;SDS011;41509;53.108;6.100;2023-07-20T03:01:40;1.38;;;1.00;;
55641;SDS011;41509;53.108;6.100;2023-07-20T03:04:07;3.55;;;1.60;;
55641;SDS011;41509;53.108;6.100;2023-07-20T03:06:35;4.53;;;1.40;;
55641;SDS011;41509;53.108;6.100;2023-07-20T03:09:02;4.85;;;1.60;;
55641;SDS011;41509;53.108;6.100;2023-07-20T03:11:28;3.95;;;1.63;;
55641;SDS011;41509;53.108;6.100;2023-07-20T03:13:54;2.72;;;1.70;;
55641;SDS011;41509;53.108;6.100;2023-07-20T03:16:21;2.92;;;1.60;;
55641;SDS011;41509;53.108;6.100;2023-07-20T03:18:50;2.80;;;1.60;;
55641;SDS011;41509;53.108;6.100;2023-07-20T03:21:16;2.97;;;1.50;;
55641;SDS011;41509;53.108;6.100;2023-07-20T03:23:42;1.98;;;1.20;;
55641;SDS011;41509;53.108;6.100;2023-07-20T03:26:08;3.45;;;1.40;;
55641;SDS011;41509;53.108;6.100;2023-07-20T03:28:37;3.05;;;1.50;;
55641;SDS011;41509;53.108;6.100;2023-07-20T03:31:03;4.55;;;1.65;;
55641;SDS011;41509;53.108;6.100;2023-07-20T03:33:29;2.63;;;1.58;;
55641;SDS011;41509;53.108;6.100;2023-07-20T03:35:56;2.42;;;1.30;;
55641;SDS011;41509;53.108;6.100;2023-07-20T03:38:24;2.67;;;1.50;;
55641;SDS011;41509;53.108;6.100;2023-07-20T03:40:51;3.95;;;1.80;;
55641;SDS011;41509;53.108;6.100;2023-07-20T03:43:17;2.33;;;1.35;;
55641;SDS011;41509;53.108;6.100;2023-07-20T03:45:43;2.88;;;1.65;;
55641;SDS011;41509;53.108;6.100;2023-07-20T03:48:10;7.25;;;1.83;;
55641;SDS011;41509;53.108;6.100;2023-07-20T03:50:37;2.25;;;1.42;;
55641;SDS011;41509;53.108;6.100;2023-07-20T03:53:03;3.47;;;1.50;;
55641;SDS011;41509;53.108;6.100;2023-07-20T03:55:28;4.20;;;1.45;;
55641;SDS011;41509;53.108;6.100;2023-07-20T03:57:54;2.90;;;1.40;;
55641;SDS011;41509;53.108;6.100;2023-07-20T04:00:20;3.20;;;2.00;;
55641;SDS011;41509;53.108;6.100;2023-07-20T04:02:46;2.85;;;1.65;;
55641;SDS011;41509;53.108;6.100;2023-07-20T04:05:11;3.35;;;1.83;;
55641;SDS011;41509;53.108;6.100;2023-07-20T04:07:37;4.10;;;1.35;;
55641;SDS011;41509;53.108;6.100;2023-07-20T04:10:03;2.30;;;1.48;;
55641;SDS011;41509;53.108;6.100;2023-07-20T04:12:29;5.85;;;1.30;;
55641;SDS011;41509;53.108;6.100;2023-07-20T04:14:55;2.97;;;1.48;;
55641;SDS011;41509;53.108;6.100;2023-07-20T04:17:21;2.50;;;1.70;;
55641;SDS011;41509;53.108;6.100;2023-07-20T04:19:46;2.90;;;1.83;;
55641;SDS011;41509;53.108;6.100;2023-07-20T04:22:13;2.30;;;1.40;;
55641;SDS011;41509;53.108;6.100;2023-07-20T04:24:41;4.50;;;1.90;;
55641;SDS011;41509;53.108;6.100;2023-07-20T04:27:07;2.78;;;1.73;;
55641;SDS011;41509;53.108;6.100;2023-07-20T04:29:33;2.42;;;1.52;;
55641;SDS011;41509;53.108;6.100;2023-07-20T04:31:59;3.08;;;2.00;;
55641;SDS011;41509;53.108;6.100;2023-07-20T04:34:25;4.10;;;1.70;;
55641;SDS011;41509;53.108;6.100;2023-07-20T04:36:51;2.78;;;1.77;;
55641;SDS011;41509;53.108;6.100;2023-07-20T04:39:16;2.60;;;1.63;;
55641;SDS011;41509;53.108;6.100;2023-07-20T04:41:42;2.13;;;1.40;;
55641;SDS011;41509;53.108;6.100;2023-07-20T04:44:08;1.92;;;1.50;;
55641;SDS011;41509;53.108;6.100;2023-07-20T04:46:34;3.30;;;1.65;;
55641;SDS011;41509;53.108;6.100;2023-07-20T04:49:00;4.00;;;1.85;;
55641;SDS011;41509;53.108;6.100;2023-07-20T04:51:26;2.65;;;1.60;;
55641;SDS011;41509;53.108;6.100;2023-07-20T04:53:52;4.28;;;1.42;;
55641;SDS011;41509;53.108;6.100;2023-07-20T04:56:18;5.30;;;1.95;;
55641;SDS011;41509;53.108;6.100;2023-07-20T04:58:44;3.78;;;2.00;;
55641;SDS011;41509;53.108;6.100;2023-07-20T05:03:36;3.60;;;1.80;;
55641;SDS011;41509;53.108;6.100;2023-07-20T05:06:01;4.38;;;1.70;;
55641;SDS011;41509;53.108;6.100;2023-07-20T05:08:27;3.40;;;1.98;;
55641;SDS011;41509;53.108;6.100;2023-07-20T05:10:53;4.57;;;2.05;;
55641;SDS011;41509;53.108;6.100;2023-07-20T05:13:18;2.60;;;1.50;;
55641;SDS011;41509;53.108;6.100;2023-07-20T05:15:44;2.40;;;1.48;;
55641;SDS011;41509;53.108;6.100;2023-07-20T05:18:10;3.40;;;1.60;;
55641;SDS011;41509;53.108;6.100;2023-07-20T05:20:36;3.65;;;1.63;;
55641;SDS011;41509;53.108;6.100;2023-07-20T05:25:28;3.95;;;1.25;;
55641;SDS011;41509;53.108;6.100;2023-07-20T05:27:53;3.78;;;1.48;;
55641;SDS011;41509;53.108;6.100;2023-07-20T05:30:20;2.63;;;1.52;;
55641;SDS011;41509;53.108;6.100;2023-07-20T05:32:46;3.97;;;2.13;;
55641;SDS011;41509;53.108;6.100;2023-07-20T05:35:16;4.22;;;2.08;;
55641;SDS011;41509;53.108;6.100;2023-07-20T05:37:43;5.10;;;2.00;;
55641;SDS011;41509;53.108;6.100;2023-07-20T05:40:09;2.55;;;1.70;;
55641;SDS011;41509;53.108;6.100;2023-07-20T05:42:37;3.80;;;1.35;;
55641;SDS011;41509;53.108;6.100;2023-07-20T05:45:03;2.83;;;1.38;;
55641;SDS011;41509;53.108;6.100;2023-07-20T05:47:30;3.15;;;1.20;;
55641;SDS011;41509;53.108;6.100;2023-07-20T05:49:56;4.38;;;1.10;;
55641;SDS011;41509;53.108;6.100;2023-07-20T05:52:21;2.85;;;1.50;;
55641;SDS011;41509;53.108;6.100;2023-07-20T05:54:47;1.67;;;0.88;;
55641;SDS011;41509;53.108;6.100;2023-07-20T05:57:16;2.67;;;1.00;;
55641;SDS011;41509;53.108;6.100;2023-07-20T05:59:41;3.08;;;1.02;;
55641;SDS011;41509;53.108;6.100;2023-07-20T06:02:09;1.65;;;0.88;;
55641;SDS011;41509;53.108;6.100;2023-07-20T06:04:35;4.80;;;1.20;;
55641;SDS011;41509;53.108;6.100;2023-07-20T06:07:02;4.35;;;1.25;;
55641;SDS011;41509;53.108;6.100;2023-07-20T06:09:28;2.00;;;0.93;;
55641;SDS011;41509;53.108;6.100;2023-07-20T06:14:19;2.28;;;0.80;;
55641;SDS011;41509;53.108;6.100;2023-07-20T06:16:45;1.58;;;0.90;;
55641;SDS011;41509;53.108;6.100;2023-07-20T06:19:11;2.60;;;0.93;;
55641;SDS011;41509;53.108;6.100;2023-07-20T06:21:37;2.67;;;1.02;;
55641;SDS011;41509;53.108;6.100;2023-07-20T06:24:03;3.03;;;1.30;;
55641;SDS011;41509;53.108;6.100;2023-07-20T06:26:30;3.20;;;0.90;;
55641;SDS011;41509;53.108;6.100;2023-07-20T06:28:57;3.50;;;0.80;;
55641;SDS011;41509;53.108;6.100;2023-07-20T06:31:23;2.15;;;0.90;;
55641;SDS011;41509;53.108;6.100;2023-07-20T06:33:49;3.25;;;0.90;;
55641;SDS011;41509;53.108;6.100;2023-07-20T06:36:17;1.58;;;0.70;;
55641;SDS011;41509;53.108;6.100;2023-07-20T06:38:43;5.97;;;0.80;;
55641;SDS011;41509;53.108;6.100;2023-07-20T06:41:08;2.60;;;0.80;;
55641;SDS011;41509;53.108;6.100;2023-07-20T06:43:34;2.85;;;0.70;;
55641;SDS011;41509;53.108;6.100;2023-07-20T06:46:00;3.55;;;0.80;;
55641;SDS011;41509;53.108;6.100;2023-07-20T06:48:26;2.22;;;0.55;;
55641;SDS011;41509;53.108;6.100;2023-07-20T06:50:51;5.63;;;1.48;;
55641;SDS011;41509;53.108;6.100;2023-07-20T06:53:18;2.70;;;0.70;;
55641;SDS011;41509;53.108;6.100;2023-07-20T06:55:44;3.42;;;0.80;;
55641;SDS011;41509;53.108;6.100;2023-07-20T06:58:11;3.88;;;1.17;;
55641;SDS011;41509;53.108;6.100;2023-07-20T07:00:37;3.55;;;0.70;;
55641;SDS011;41509;53.108;6.100;2023-07-20T07:03:02;2.13;;;0.60;;
55641;SDS011;41509;53.108;6.100;2023-07-20T07:05:28;1.65;;;0.60;;
55641;SDS011;41509;53.108;6.100;2023-07-20T07:07:54;3.88;;;0.70;;
55641;SDS011;41509;53.108;6.100;2023-07-20T07:10:20;3.28;;;1.05;;
55641;SDS011;41509;53.108;6.100;2023-07-20T07:12:45;2.25;;;0.80;;
55641;SDS011;41509;53.108;6.100;2023-07-20T07:15:11;4.20;;;0.90;;
55641;SDS011;41509;53.108;6.100;2023-07-20T07:17:37;1.85;;;0.77;;
55641;SDS011;41509;53.108;6.100;2023-07-20T07:20:03;5.07;;;0.80;;
55641;SDS011;41509;53.108;6.100;2023-07-20T07:22:30;1.42;;;0.52;;
55641;SDS011;41509;53.108;6.100;2023-07-20T07:24:56;3.58;;;0.85;;
55641;SDS011;41509;53.108;6.100;2023-07-20T07:27:21;2.80;;;0.90;;
55641;SDS011;41509;53.108;6.100;2023-07-20T07:29:47;6.57;;;0.85;;
55641;SDS011;41509;53.108;6.100;2023-07-20T07:32:14;4.15;;;1.15;;
55641;SDS011;41509;53.108;6.100;2023-07-20T07:37:06;1.95;;;0.80;;
55641;SDS011;41509;53.108;6.100;2023-07-20T07:39:31;3.00;;;1.00;;
55641;SDS011;41509;53.108;6.100;2023-07-20T07:41:57;4.65;;;1.23;;
55641;SDS011;41509;53.108;6.100;2023-07-20T07:44:23;3.85;;;1.48;;
55641;SDS011;41509;53.108;6.100;2023-07-20T07:46:49;3.10;;;1.08;;
55641;SDS011;41509;53.108;6.100;2023-07-20T07:49:15;2.88;;;1.23;;
55641;SDS011;41509;53.108;6.100;2023-07-20T07:51:42;3.63;;;1.15;;
55641;SDS011;41509;53.108;6.100;2023-07-20T07:54:07;4.25;;;1.50;;
55641;SDS011;41509;53.108;6.100;2023-07-20T07:56:33;3.35;;;1.20;;
55641;SDS011;41509;53.108;6.100;2023-07-20T07:58:59;3.88;;;1.35;;
55641;SDS011;41509;53.108;6.100;2023-07-20T08:01:24;2.55;;;1.20;;
55641;SDS011;41509;53.108;6.100;2023-07-20T08:03:50;2.80;;;1.20;;
55641;SDS011;41509;53.108;6.100;2023-07-20T08:06:16;3.15;;;1.10;;
55641;SDS011;41509;53.108;6.100;2023-07-20T08:08:42;5.60;;;1.10;;
55641;SDS011;41509;53.108;6.100;2023-07-20T08:11:07;3.63;;;1.20;;
55641;SDS011;41509;53.108;6.100;2023-07-20T08:16:00;1.95;;;0.98;;
55641;SDS011;41509;53.108;6.100;2023-07-20T08:18:27;2.65;;;1.17;;
55641;SDS011;41509;53.108;6.100;2023-07-20T08:20:53;3.22;;;1.23;;
55641;SDS011;41509;53.108;6.100;2023-07-20T08:23:19;1.83;;;0.90;;
55641;SDS011;41509;53.108;6.100;2023-07-20T08:25:45;2.72;;;1.00;;
55641;SDS011;41509;53.108;6.100;2023-07-20T08:28:11;2.47;;;1.15;;
55641;SDS011;41509;53.108;6.100;2023-07-20T08:30:46;2.67;;;1.02;;
55641;SDS011;41509;53.108;6.100;2023-07-20T08:33:13;3.95;;;1.35;;
55641;SDS011;41509;53.108;6.100;2023-07-20T08:35:39;2.75;;;0.90;;
55641;SDS011;41509;53.108;6.100;2023-07-20T08:38:06;3.15;;;1.20;;
55641;SDS011;41509;53.108;6.100;2023-07-20T08:40:33;2.63;;;1.20;;
55641;SDS011;41509;53.108;6.100;2023-07-20T08:43:04;2.72;;;1.10;;
55641;SDS011;41509;53.108;6.100;2023-07-20T08:45:29;4.32;;;1.17;;
55641;SDS011;41509;53.108;6.100;2023-07-20T08:47:58;3.83;;;0.93;;
55641;SDS011;41509;53.108;6.100;2023-07-20T08:50:31;3.33;;;1.10;;
55641;SDS011;41509;53.108;6.100;2023-07-20T08:52:57;2.20;;;1.08;;
55641;SDS011;41509;53.108;6.100;2023-07-20T08:55:23;2.08;;;0.80;;
55641;SDS011;41509;53.108;6.100;2023-07-20T08:57:53;2.22;;;1.10;;
55641;SDS011;41509;53.108;6.100;2023-07-20T09:00:20;2.63;;;0.77;;
55641;SDS011;41509;53.108;6.100;2023-07-20T09:02:48;2.83;;;1.10;;
55641;SDS011;41509;53.108;6.100;2023-07-20T09:05:16;5.57;;;1.42;;
55641;SDS011;41509;53.108;6.100;2023-07-20T09:07:43;2.28;;;1.20;;
55641;SDS011;41509;53.108;6.100;2023-07-20T09:10:09;3.72;;;1.02;;
55641;SDS011;41509;53.108;6.100;2023-07-20T09:12:39;8.20;;;1.25;;
55641;SDS011;41509;53.108;6.100;2023-07-20T09:15:06;3.13;;;1.23;;
55641;SDS011;41509;53.108;6.100;2023-07-20T09:17:32;1.98;;;0.90;;
55641;SDS011;41509;53.108;6.100;2023-07-20T09:19:58;6.80;;;1.23;;
55641;SDS011;41509;53.108;6.100;2023-07-20T09:22:33;2.15;;;0.88;;
55641;SDS011;41509;53.108;6.100;2023-07-20T09:24:59;3.70;;;1.00;;
55641;SDS011;41509;53.108;6.100;2023-07-20T09:27:34;2.38;;;0.90;;
55641;SDS011;41509;53.108;6.100;2023-07-20T09:30:04;5.32;;;1.13;;
55641;SDS011;41509;53.108;6.100;2023-07-20T09:32:34;2.58;;;1.13;;
55641;SDS011;41509;53.108;6.100;2023-07-20T09:35:04;1.05;;;0.50;;
55641;SDS011;41509;53.108;6.100;2023-07-20T09:37:30;2.53;;;0.55;;
55641;SDS011;41509;53.108;6.100;2023-07-20T09:39:58;3.20;;;0.60;;
55641;SDS011;41509;53.108;6.100;2023-07-20T09:42:25;2.88;;;0.60;;
55641;SDS011;41509;53.108;6.100;2023-07-20T09:44:51;5.05;;;1.08;;
55641;SDS011;41509;53.108;6.100;2023-07-20T09:47:21;2.30;;;0.80;;
55641;SDS011;41509;53.108;6.100;2023-07-20T09:49:48;1.77;;;0.80;;
55641;SDS011;41509;53.108;6.100;2023-07-20T09:52:14;6.85;;;0.77;;
55641;SDS011;41509;53.108;6.100;2023-07-20T09:54:41;2.13;;;0.70;;
55641;SDS011;41509;53.108;6.100;2023-07-20T09:57:11;3.67;;;1.02;;
55641;SDS011;41509;53.108;6.100;2023-07-20T09:59:39;4.32;;;1.13;;
55641;SDS011;41509;53.108;6.100;2023-07-20T10:02:05;2.53;;;1.10;;
55641;SDS011;41509;53.108;6.100;2023-07-20T10:04:41;3.28;;;0.95;;
55641;SDS011;41509;53.108;6.100;2023-07-20T10:07:09;3.35;;;1.27;;
55641;SDS011;41509;53.108;6.100;2023-07-20T10:09:39;4.25;;;1.02;;
55641;SDS011;41509;53.108;6.100;2023-07-20T10:12:07;2.60;;;0.80;;
55641;SDS011;41509;53.108;6.100;2023-07-20T10:14:35;3.30;;;1.00;;
55641;SDS011;41509;53.108;6.100;2023-07-20T10:17:06;1.95;;;0.70;;
55641;SDS011;41509;53.108;6.100;2023-07-20T10:22:43;3.38;;;0.68;;
55641;SDS011;41509;53.108;6.100;2023-07-20T10:25:02;5.85;;;1.30;;
55641;SDS011;41509;53.108;6.100;2023-07-20T10:27:29;3.15;;;0.95;;
55641;SDS011;41509;53.108;6.100;2023-07-20T10:29:55;1.58;;;0.63;;
55641;SDS011;41509;53.108;6.100;2023-07-20T10:32:24;2.95;;;0.73;;
55641;SDS011;41509;53.108;6.100;2023-07-20T10:34:50;2.42;;;0.75;;
55641;SDS011;41509;53.108;6.100;2023-07-20T10:40:28;1.73;;;0.77;;
55641;SDS011;41509;53.108;6.100;2023-07-20T10:45:33;3.10;;;0.90;;
55641;SDS011;41509;53.108;6.100;2023-07-20T10:48:05;2.05;;;0.60;;
55641;SDS011;41509;53.108;6.100;2023-07-20T10:53:39;3.10;;;1.00;;
55641;SDS011;41509;53.108;6.100;2023-07-20T10:56:11;4.25;;;1.40;;
55641;SDS011;41509;53.108;6.100;2023-07-20T10:58:41;2.10;;;0.82;;
55641;SDS011;41509;53.108;6.100;2023-07-20T11:01:07;2.45;;;0.80;;
55641;SDS011;41509;53.108;6.100;2023-07-20T11:03:34;2.33;;;0.85;;
55641;SDS011;41509;53.108;6.100;2023-07-20T11:09:04;2.03;;;0.80;;
55641;SDS011;41509;53.108;6.100;2023-07-20T11:11:50;2.10;;;0.88;;
55641;SDS011;41509;53.108;6.100;2023-07-20T11:14:33;3.33;;;0.98;;
55641;SDS011;41509;53.108;6.100;2023-07-20T11:17:10;4.07;;;0.85;;
55641;SDS011;41509;53.108;6.100;2023-07-20T11:19:38;3.20;;;1.00;;
55641;SDS011;41509;53.108;6.100;2023-07-20T11:22:05;2.03;;;0.65;;
55641;SDS011;41509;53.108;6.100;2023-07-20T11:24:33;2.13;;;1.02;;
55641;SDS011;41509;53.108;6.100;2023-07-20T11:26:59;2.17;;;1.20;;
55641;SDS011;41509;53.108;6.100;2023-07-20T11:29:26;1.73;;;0.73;;
55641;SDS011;41509;53.108;6.100;2023-07-20T11:31:52;4.60;;;0.70;;
55641;SDS011;41509;53.108;6.100;2023-07-20T11:34:18;2.70;;;0.85;;
55641;SDS011;41509;53.108;6.100;2023-07-20T11:36:46;4.05;;;1.30;;
55641;SDS011;41509;53.108;6.100;2023-07-20T11:39:13;3.53;;;0.93;;
55641;SDS011;41509;53.108;6.100;2023-07-20T11:41:47;4.40;;;1.00;;
55641;SDS011;41509;53.108;6.100;2023-07-20T11:44:18;2.95;;;0.80;;
55641;SDS011;41509;53.108;6.100;2023-07-20T11:46:46;1.50;;;0.77;;
55641;SDS011;41509;53.108;6.100;2023-07-20T11:49:12;1.92;;;0.80;;
55641;SDS011;41509;53.108;6.100;2023-07-20T11:54:05;2.85;;;0.70;;
55641;SDS011;41509;53.108;6.100;2023-07-20T11:56:33;1.80;;;0.80;;
55641;SDS011;41509;53.108;6.100;2023-07-20T11:58:58;5.10;;;1.27;;
55641;SDS011;41509;53.108;6.100;2023-07-20T12:01:27;3.45;;;1.10;;
55641;SDS011;41509;53.108;6.100;2023-07-20T12:04:03;2.55;;;0.95;;
55641;SDS011;41509;53.108;6.100;2023-07-20T12:06:30;3.65;;;1.10;;
55641;SDS011;41509;53.108;6.100;2023-07-20T12:08:57;3.83;;;1.00;;
55641;SDS011;41509;53.108;6.100;2023-07-20T12:11:57;3.10;;;1.10;;
55641;SDS011;41509;53.108;6.100;2023-07-20T12:14:16;4.07;;;0.90;;
55641;SDS011;41509;53.108;6.100;2023-07-20T12:19:12;2.90;;;0.80;;
55641;SDS011;41509;53.108;6.100;2023-07-20T12:21:39;3.60;;;1.00;;
55641;SDS011;41509;53.108;6.100;2023-07-20T12:24:06;2.42;;;1.10;;
55641;SDS011;41509;53.108;6.100;2023-07-20T12:26:34;2.95;;;1.05;;
55641;SDS011;41509;53.108;6.100;2023-07-20T12:31:26;1.10;;;0.65;;
55641;SDS011;41509;53.108;6.100;2023-07-20T12:33:53;3.58;;;1.10;;
55641;SDS011;41509;53.108;6.100;2023-07-20T12:36:22;2.08;;;1.00;;
55641;SDS011;41509;53.108;6.100;2023-07-20T12:41:13;3.55;;;1.23;;
55641;SDS011;41509;53.108;6.100;2023-07-20T12:43:40;2.95;;;1.08;;
55641;SDS011;41509;53.108;6.100;2023-07-20T12:46:06;2.63;;;1.00;;
55641;SDS011;41509;53.108;6.100;2023-07-20T12:48:33;1.75;;;0.80;;
55641;SDS011;41509;53.108;6.100;2023-07-20T12:53:24;2.33;;;0.93;;
55641;SDS011;41509;53.108;6.100;2023-07-20T12:58:15;2.08;;;0.93;;
55641;SDS011;41509;53.108;6.100;2023-07-20T13:03:08;2.30;;;0.80;;
55641;SDS011;41509;53.108;6.100;2023-07-20T13:08:02;2.90;;;0.93;;
55641;SDS011;41509;53.108;6.100;2023-07-20T13:10:29;2.15;;;0.90;;
55641;SDS011;41509;53.108;6.100;2023-07-20T13:12:55;2.88;;;0.80;;
55641;SDS011;41509;53.108;6.100;2023-07-20T13:17:46;2.40;;;0.70;;
55641;SDS011;41509;53.108;6.100;2023-07-20T13:22:39;3.88;;;0.90;;
55641;SDS011;41509;53.108;6.100;2023-07-20T13:25:05;1.77;;;0.82;;
55641;SDS011;41509;53.108;6.100;2023-07-20T13:27:33;1.15;;;0.70;;
55641;SDS011;41509;53.108;6.100;2023-07-20T13:29:59;3.35;;;0.68;;
55641;SDS011;41509;53.108;6.100;2023-07-20T13:32:32;3.88;;;0.73;;
55641;SDS011;41509;53.108;6.100;2023-07-20T13:37:24;1.65;;;0.60;;
55641;SDS011;41509;53.108;6.100;2023-07-20T13:42:16;1.98;;;0.70;;
55641;SDS011;41509;53.108;6.100;2023-07-20T13:44:42;2.50;;;0.90;;
55641;SDS011;41509;53.108;6.100;2023-07-20T13:49:33;3.55;;;1.02;;
55641;SDS011;41509;53.108;6.100;2023-07-20T13:54:25;3.00;;;0.90;;
55641;SDS011;41509;53.108;6.100;2023-07-20T13:59:19;2.47;;;0.90;;
55641;SDS011;41509;53.108;6.100;2023-07-20T14:01:45;1.63;;;0.70;;
55641;SDS011;41509;53.108;6.100;2023-07-20T14:04:12;1.20;;;0.60;;
55641;SDS011;41509;53.108;6.100;2023-07-20T14:09:03;1.33;;;0.60;;
55641;SDS011;41509;53.108;6.100;2023-07-20T14:13:55;1.88;;;0.57;;
55641;SDS011;41509;53.108;6.100;2023-07-20T14:16:21;3.63;;;0.68;;
55641;SDS011;41509;53.108;6.100;2023-07-20T14:18:48;1.30;;;0.47;;
55641;SDS011;41509;53.108;6.100;2023-07-20T14:21:15;1.27;;;0.70;;
55641;SDS011;41509;53.108;6.100;2023-07-20T14:23:41;2.03;;;0.65;;
55641;SDS011;41509;53.108;6.100;2023-07-20T14:26:09;1.30;;;0.60;;
55641;SDS011;41509;53.108;6.100;2023-07-20T14:31:01;3.03;;;0.75;;
55641;SDS011;41509;53.108;6.100;2023-07-20T14:35:52;2.20;;;0.68;;
55641;SDS011;41509;53.108;6.100;2023-07-20T14:40:44;1.23;;;0.50;;
55641;SDS011;41509;53.108;6.100;2023-07-20T14:43:10;2.08;;;0.60;;
55641;SDS011;41509;53.108;6.100;2023-07-20T14:48:05;0.90;;;0.50;;
55641;SDS011;41509;53.108;6.100;2023-07-20T14:52:57;1.30;;;0.40;;
55641;SDS011;41509;53.108;6.100;2023-07-20T14:57:48;2.03;;;0.95;;
55641;SDS011;41509;53.108;6.100;2023-07-20T15:02:40;1.10;;;0.50;;
55641;SDS011;41509;53.108;6.100;2023-07-20T15:07:32;2.47;;;0.70;;
55641;SDS011;41509;53.108;6.100;2023-07-20T15:09:58;2.80;;;0.85;;
55641;SDS011;41509;53.108;6.100;2023-07-20T15:15:03;1.67;;;0.65;;
55641;SDS011;41509;53.108;6.100;2023-07-20T15:17:31;2.95;;;0.77;;
55641;SDS011;41509;53.108;6.100;2023-07-20T15:19:57;1.25;;;0.63;;
55641;SDS011;41509;53.108;6.100;2023-07-20T15:22:24;2.75;;;1.35;;
55641;SDS011;41509;53.108;6.100;2023-07-20T15:24:51;3.35;;;1.33;;
55641;SDS011;41509;53.108;6.100;2023-07-20T15:29:42;3.97;;;0.80;;
55641;SDS011;41509;53.108;6.100;2023-07-20T15:32:09;1.83;;;0.85;;
55641;SDS011;41509;53.108;6.100;2023-07-20T15:34:38;1.85;;;0.93;;
55641;SDS011;41509;53.108;6.100;2023-07-20T15:37:04;1.95;;;0.63;;
55641;SDS011;41509;53.108;6.100;2023-07-20T15:39:30;2.00;;;0.70;;
55641;SDS011;41509;53.108;6.100;2023-07-20T15:44:21;2.78;;;0.77;;
55641;SDS011;41509;53.108;6.100;2023-07-20T15:49:13;2.28;;;0.70;;
55641;SDS011;41509;53.108;6.100;2023-07-20T15:54:07;2.45;;;0.68;;
55641;SDS011;41509;53.108;6.100;2023-07-20T15:56:36;1.50;;;0.60;;
55641;SDS011;41509;53.108;6.100;2023-07-20T15:59:03;1.77;;;0.52;;
55641;SDS011;41509;53.108;6.100;2023-07-20T16:01:30;1.77;;;0.70;;
55641;SDS011;41509;53.108;6.100;2023-07-20T16:03:59;1.70;;;0.85;;
55641;SDS011;41509;53.108;6.100;2023-07-20T16:06:25;2.72;;;0.63;;
55641;SDS011;41509;53.108;6.100;2023-07-20T16:08:51;2.35;;;0.80;;
55641;SDS011;41509;53.108;6.100;2023-07-20T16:13:44;2.00;;;0.80;;
55641;SDS011;41509;53.108;6.100;2023-07-20T16:16:10;1.17;;;0.70;;
55641;SDS011;41509;53.108;6.100;2023-07-20T16:18:36;3.00;;;0.75;;
55641;SDS011;41509;53.108;6.100;2023-07-20T16:21:02;1.98;;;0.65;;
55641;SDS011;41509;53.108;6.100;2023-07-20T16:25:54;2.58;;;1.02;;
55641;SDS011;41509;53.108;6.100;2023-07-20T16:30:46;1.58;;;0.77;;
55641;SDS011;41509;53.108;6.100;2023-07-20T16:35:38;3.38;;;1.00;;
55641;SDS011;41509;53.108;6.100;2023-07-20T16:38:05;1.23;;;0.65;;
55641;SDS011;41509;53.108;6.100;2023-07-20T16:40:32;2.00;;;0.90;;
55641;SDS011;41509;53.108;6.100;2023-07-20T16:43:00;1.15;;;0.50;;
55641;SDS011;41509;53.108;6.100;2023-07-20T16:45:26;1.95;;;0.70;;
55641;SDS011;41509;53.108;6.100;2023-07-20T16:50:17;1.83;;;0.80;;
55641;SDS011;41509;53.108;6.100;2023-07-20T16:52:43;2.63;;;0.73;;